SWF weather

Stewart International Airport
Newburgh, New York, United States

Public forecast

Using degrees Fahrenheit for public forecast. Weather courtesy of forecast.io.

METAR (pilot weather report)

Retrieved 2019/05/19 12:45 UTC (1 hour ago):

KSWF 191245Z VRB05KT 20SM BKN100 18/14 A3006

TAF (pilot weather forecast)

Retrieved 2019/05/19 12:36 UTC (1 hour ago):

TAF KSWF 191135Z 1912/2018 VRB03KT P6SM BKN040 FM191300 19011KT P6SM SCT025 SCT060 BKN100 FM191600 21012G18KT P6SM SCT050 BKN100 FM192200 21009KT P6SM BKN040 BKN070 PROB30 1922/2003 5SM -TSRA BKN035CB FM200300 21007KT 5SM -SHRA BR SCT015 BKN020 OVC060 FM200600 24009KT P6SM VCSH BKN015 BKN050 FM201400 25009KT P6SM VCSH SCT015 BKN040 AMD NOT SKED